Time;durP1;ratioP1;P1;durP2;ratioP2;P2;SDS_P1;SDS_P2;PMS_P1;PMS_P2;Temp;Humidity;BMP_temperature;BMP_pressure;BME280_temperature;BME280_humidity;BME280_pressure;Samples;Min_cycle;Max_cycle;Signal;HPM_P1;HPM_P2
2021/12/06 00:00:08;;;;;;;;;2.00;1.00;;;;;;;;5045738;28;47186;-83
2021/12/06 00:02:35;;;;;;;;;6.00;6.00;;;;;;;;5062548;28;44822;-83
2021/12/06 00:05:00;;;;;;;;;5.00;2.00;;;;;;;;5045295;28;45799;-83
2021/12/06 00:07:25;;;;;;;;;5.00;3.00;;;;;;;;5044778;28;45588;-81
2021/12/06 00:09:51;;;;;;;;;6.00;2.00;;;;;;;;5061899;28;45765;-82
2021/12/06 00:12:16;;;;;;;;;3.00;1.33;;;;;;;;5045173;28;45385;-82
2021/12/06 00:14:43;;;;;;;;;3.00;3.00;;;;;;;;5064570;28;45493;-83
2021/12/06 00:17:10;;;;;;;;;3.00;2.67;;;;;;;;5045874;28;45635;-83
2021/12/06 00:19:35;;;;;;;;;3.00;1.33;;;;;;;;5047894;28;46969;-83
2021/12/06 00:22:02;;;;;;;;;3.00;2.00;;;;;;;;5064424;28;45864;-82
2021/12/06 00:24:28;;;;;;;;;3.00;1.00;;;;;;;;5066120;28;45343;-82
2021/12/06 00:29:56;;;;;;;;;2.67;2.67;;;;;;;;5065842;28;45769;-82
2021/12/06 00:32:22;;;;;;;;;5.33;3.00;;;;;;;;5065493;28;45347;-82
2021/12/06 00:34:48;;;;;;;;;5.67;5.67;;;;;;;;5048396;28;45401;-82
2021/12/06 00:37:22;;;;;;;;;5.00;5.00;;;;;;;;5047190;28;45821;-82
2021/12/06 00:39:52;;;;;;;;;4.33;2.67;;;;;;;;5067158;28;45548;-83
2021/12/06 00:42:18;;;;;;;;;3.67;3.67;;;;;;;;5085648;28;45404;-83
2021/12/06 00:44:50;;;;;;;;;2.67;2.67;;;;;;;;5084745;28;45779;-83
2021/12/06 00:47:15;;;;;;;;;2.33;2.33;;;;;;;;5083442;28;45487;-82
2021/12/06 00:49:41;;;;;;;;;2.00;2.00;;;;;;;;5064888;28;48108;-83
2021/12/06 00:52:07;;;;;;;;;4.33;4.33;;;;;;;;5066308;28;45509;-82
2021/12/06 00:54:35;;;;;;;;;4.33;3.00;;;;;;;;5085948;27;45514;-83
2021/12/06 00:57:01;;;;;;;;;3.00;2.00;;;;;;;;5050850;28;44857;-83
2021/12/06 00:59:27;;;;;;;;;5.00;5.00;;;;;;;;5041868;28;46156;-83
2021/12/06 01:01:54;;;;;;;;;3.67;3.67;;;;;;;;5041312;28;45434;-83
2021/12/06 01:04:20;;;;;;;;;3.00;3.00;;;;;;;;5041247;28;45544;-83
2021/12/06 01:06:45;;;;;;;;;2.67;2.67;;;;;;;;5041334;28;45454;-82
2021/12/06 01:09:11;;;;;;;;;2.67;2.67;;;;;;;;5043480;28;45292;-83
2021/12/06 01:11:36;;;;;;;;;5.67;5.67;;;;;;;;5042357;28;45536;-83
2021/12/06 01:14:01;;;;;;;;;3.00;3.00;;;;;;;;5041746;28;44862;-83
2021/12/06 01:16:29;;;;;;;;;6.33;4.33;;;;;;;;5043955;28;45672;-83
2021/12/06 01:18:54;;;;;;;;;5.67;4.33;;;;;;;;5043993;28;45669;-83
2021/12/06 01:21:30;;;;;;;;;2.33;2.00;;;;;;;;5042869;28;45367;-83
2021/12/06 01:23:59;;;;;;;;;3.00;3.00;;;;;;;;5039341;28;45794;-83
2021/12/06 01:40:09;;;;;;;;;2.00;2.00;;;;;;;;5039641;28;45732;-82
2021/12/06 01:42:34;;;;;;;;;3.00;2.00;;;;;;;;5021860;28;45488;-81
2021/12/06 01:44:59;;;;;;;;;3.33;3.33;;;;;;;;5040416;28;45378;-83
2021/12/06 01:47:27;;;;;;;;;7.00;6.00;;;;;;;;5040189;28;45446;-83
2021/12/06 01:49:54;;;;;;;;;3.67;2.00;;;;;;;;5041246;28;45773;-83
2021/12/06 01:52:22;;;;;;;;;3.00;2.00;;;;;;;;5041027;28;46264;-83
2021/12/06 01:54:48;;;;;;;;;2.00;2.00;;;;;;;;5059584;28;45344;-83
2021/12/06 01:57:13;;;;;;;;;3.00;3.00;;;;;;;;5060150;28;45526;-84
2021/12/06 01:59:39;;;;;;;;;2.67;2.67;;;;;;;;5059804;28;45387;-82
2021/12/06 02:02:05;;;;;;;;;2.00;2.00;;;;;;;;5063376;28;45409;-83
2021/12/06 02:04:32;;;;;;;;;3.00;3.00;;;;;;;;5045356;28;45857;-83
2021/12/06 02:06:58;;;;;;;;;5.67;5.33;;;;;;;;5062168;28;45783;-83
2021/12/06 02:09:26;;;;;;;;;3.00;3.00;;;;;;;;5062351;28;47063;-83
2021/12/06 02:11:52;;;;;;;;;3.00;2.00;;;;;;;;5063838;28;45959;-83
2021/12/06 02:17:12;;;;;;;;;5.33;5.00;;;;;;;;5066416;28;45144;-84
2021/12/06 02:19:41;;;;;;;;;3.00;2.00;;;;;;;;5065585;28;47021;-84
2021/12/06 02:22:09;;;;;;;;;5.67;4.33;;;;;;;;5060074;28;45441;-84
2021/12/06 02:24:37;;;;;;;;;2.33;2.00;;;;;;;;5062208;28;45483;-84
2021/12/06 02:27:03;;;;;;;;;2.67;2.00;;;;;;;;5043808;28;45328;-85
2021/12/06 02:29:29;;;;;;;;;3.67;2.00;;;;;;;;5064010;28;45345;-85
2021/12/06 02:31:54;;;;;;;;;3.00;3.00;;;;;;;;5062761;28;44783;-84
2021/12/06 02:34:20;;;;;;;;;6.00;6.00;;;;;;;;5061441;28;45573;-84
2021/12/06 02:36:46;;;;;;;;;3.00;3.00;;;;;;;;5064891;27;45375;-85
2021/12/06 02:39:19;;;;;;;;;4.00;3.67;;;;;;;;5064341;28;46840;-84
2021/12/06 02:41:46;;;;;;;;;2.67;2.67;;;;;;;;5063314;28;45757;-85
2021/12/06 02:44:12;;;;;;;;;5.00;4.33;;;;;;;;5065609;28;45429;-84
2021/12/06 02:46:37;;;;;;;;;3.00;3.00;;;;;;;;5083313;28;45832;-83
2021/12/06 02:49:03;;;;;;;;;7.00;3.00;;;;;;;;5082821;28;45448;-84
2021/12/06 02:51:28;;;;;;;;;5.67;5.00;;;;;;;;5083115;27;45494;-84
2021/12/06 02:53:53;;;;;;;;;9.00;6.33;;;;;;;;5084157;27;45513;-84
2021/12/06 02:56:31;;;;;;;;;2.00;2.00;;;;;;;;5066377;28;45777;-84
2021/12/06 02:58:58;;;;;;;;;6.00;6.00;;;;;;;;5086604;28;45330;-84
2021/12/06 03:01:38;;;;;;;;;5.00;4.33;;;;;;;;5085860;28;44806;-84
2021/12/06 03:04:04;;;;;;;;;3.67;2.67;;;;;;;;5066195;28;45371;-83
2021/12/06 03:06:31;;;;;;;;;5.67;5.67;;;;;;;;5066373;28;45432;-84
2021/12/06 03:09:05;;;;;;;;;5.33;5.33;;;;;;;;5048558;28;47925;-83
2021/12/06 03:11:36;;;;;;;;;7.00;5.00;;;;;;;;5047831;28;46066;-83
2021/12/06 03:14:02;;;;;;;;;3.00;3.00;;;;;;;;5047631;28;45474;-84
2021/12/06 03:19:32;;;;;;;;;4.33;4.33;;;;;;;;5066327;28;45703;-84
2021/12/06 03:21:57;;;;;;;;;5.00;4.33;;;;;;;;5065876;28;45353;-84
2021/12/06 03:24:23;;;;;;;;;5.33;5.33;;;;;;;;5047805;28;45028;-85
2021/12/06 03:26:49;;;;;;;;;7.00;5.67;;;;;;;;5047729;28;45405;-83
2021/12/06 03:29:14;;;;;;;;;5.00;5.00;;;;;;;;5047907;28;47463;-83
2021/12/06 03:31:40;;;;;;;;;5.00;2.67;;;;;;;;5066578;28;45622;-83
2021/12/06 03:34:06;;;;;;;;;4.33;3.00;;;;;;;;5048648;28;45360;-84
2021/12/06 03:36:33;;;;;;;;;4.00;3.00;;;;;;;;5049765;28;45493;-84
2021/12/06 03:38:58;;;;;;;;;2.67;1.33;;;;;;;;5066557;28;46040;-84
2021/12/06 03:41:25;;;;;;;;;5.67;5.00;;;;;;;;5068629;28;45384;-84
2021/12/06 03:43:51;;;;;;;;;5.00;5.00;;;;;;;;5048841;28;45703;-84
2021/12/06 03:46:18;;;;;;;;;6.00;5.00;;;;;;;;5066148;28;45521;-84
2021/12/06 03:48:44;;;;;;;;;5.33;3.00;;;;;;;;5046828;28;47178;-84
2021/12/06 03:51:09;;;;;;;;;2.67;2.67;;;;;;;;5047885;28;45474;-83
2021/12/06 03:53:34;;;;;;;;;8.00;5.00;;;;;;;;5066332;28;45435;-84
2021/12/06 03:56:01;;;;;;;;;2.00;2.00;;;;;;;;5048766;28;45483;-84
2021/12/06 03:58:27;;;;;;;;;5.33;5.33;;;;;;;;5066740;28;45507;-84
2021/12/06 04:00:52;;;;;;;;;3.00;3.00;;;;;;;;5046412;28;45532;-84
2021/12/06 04:03:19;;;;;;;;;6.33;5.33;;;;;;;;5064347;28;45390;-84
2021/12/06 04:05:44;;;;;;;;;4.33;4.33;;;;;;;;5064392;28;45484;-84
2021/12/06 04:08:09;;;;;;;;;7.33;7.33;;;;;;;;5063092;28;46272;-85
2021/12/06 04:10:36;;;;;;;;;4.67;2.67;;;;;;;;5046561;28;44771;-84
2021/12/06 04:13:01;;;;;;;;;5.00;5.00;;;;;;;;5065850;28;45384;-84
2021/12/06 04:15:29;;;;;;;;;3.67;2.67;;;;;;;;5066433;28;45438;-84
2021/12/06 04:17:54;;;;;;;;;3.67;3.00;;;;;;;;5048442;28;48198;-84
2021/12/06 04:20:20;;;;;;;;;6.00;5.00;;;;;;;;5047762;28;45651;-84
2021/12/06 04:22:45;;;;;;;;;3.00;3.00;;;;;;;;5068284;28;45855;-84
2021/12/06 04:25:12;;;;;;;;;3.00;3.00;;;;;;;;5066452;28;45853;-84
2021/12/06 04:27:38;;;;;;;;;5.00;5.00;;;;;;;;5069300;28;45811;-84
2021/12/06 04:30:05;;;;;;;;;5.00;5.00;;;;;;;;5047481;28;45507;-84
2021/12/06 04:32:30;;;;;;;;;3.67;3.67;;;;;;;;5046034;28;45544;-85
2021/12/06 04:34:55;;;;;;;;;5.00;5.00;;;;;;;;5076345;28;45412;-84
2021/12/06 04:37:21;;;;;;;;;3.00;3.00;;;;;;;;5066821;28;47088;-84
2021/12/06 04:39:46;;;;;;;;;3.67;3.67;;;;;;;;5083735;28;45612;-84
2021/12/06 04:42:12;;;;;;;;;6.00;5.33;;;;;;;;5068532;28;45511;-84
2021/12/06 04:44:37;;;;;;;;;4.33;4.33;;;;;;;;5081763;28;44803;-85
2021/12/06 04:47:03;;;;;;;;;3.00;3.00;;;;;;;;5063631;28;48295;-85
2021/12/06 04:49:29;;;;;;;;;6.00;5.00;;;;;;;;5083626;28;45392;-84
2021/12/06 04:51:56;;;;;;;;;3.00;3.00;;;;;;;;5083041;28;45448;-84
2021/12/06 04:54:23;;;;;;;;;5.33;5.00;;;;;;;;5055208;28;45635;-84
2021/12/06 04:56:51;;;;;;;;;7.67;6.33;;;;;;;;5063648;28;45557;-84
2021/12/06 04:59:19;;;;;;;;;4.67;3.00;;;;;;;;5063505;28;45509;-84
2021/12/06 05:01:45;;;;;;;;;3.00;3.00;;;;;;;;5043187;28;45410;-84
2021/12/06 05:04:13;;;;;;;;;5.33;3.67;;;;;;;;5025735;28;45429;-84
2021/12/06 05:06:40;;;;;;;;;3.00;3.00;;;;;;;;5025238;28;47135;-84
2021/12/06 05:09:13;;;;;;;;;2.00;2.00;;;;;;;;5043653;28;45734;-84
2021/12/06 05:11:38;;;;;;;;;12.00;7.00;;;;;;;;5045637;28;44778;-84
2021/12/06 05:14:04;;;;;;;;;1.00;1.00;;;;;;;;5029154;28;45434;-84
2021/12/06 05:16:30;;;;;;;;;6.00;6.00;;;;;;;;5045266;28;45703;-84
2021/12/06 05:19:02;;;;;;;;;4.33;3.00;;;;;;;;5027391;28;46001;-84
2021/12/06 05:21:28;;;;;;;;;10.00;6.67;;;;;;;;5026938;28;46048;-85
2021/12/06 05:23:53;;;;;;;;;9.00;7.33;;;;;;;;5046072;28;45570;-84
2021/12/06 05:26:18;;;;;;;;;7.00;7.00;;;;;;;;5045551;28;46341;-84
2021/12/06 05:28:47;;;;;;;;;5.33;5.00;;;;;;;;5026999;28;45495;-85
2021/12/06 05:31:15;;;;;;;;;7.33;5.00;;;;;;;;5027070;28;45479;-84
2021/12/06 05:33:46;;;;;;;;;6.00;5.00;;;;;;;;5026362;28;45526;-84
2021/12/06 05:36:11;;;;;;;;;7.00;3.00;;;;;;;;5024565;28;47422;-83
2021/12/06 05:38:37;;;;;;;;;3.67;3.67;;;;;;;;5024916;28;44778;-84
2021/12/06 05:41:02;;;;;;;;;3.67;3.67;;;;;;;;5041923;28;45656;-85
2021/12/06 05:43:27;;;;;;;;;1.67;0.33;;;;;;;;5041991;28;45387;-85
2021/12/06 05:49:25;;;;;;;;;5.33;3.67;;;;;;;;5041061;28;45770;-84
2021/12/06 05:51:51;;;;;;;;;7.00;5.00;;;;;;;;5041662;28;45520;-85
2021/12/06 05:54:16;;;;;;;;;7.33;5.67;;;;;;;;5024261;28;45810;-85
2021/12/06 05:56:42;;;;;;;;;7.33;5.67;;;;;;;;5025134;28;46852;-84
2021/12/06 06:02:11;;;;;;;;;4.33;4.33;;;;;;;;5042510;28;45506;-84
2021/12/06 06:04:37;;;;;;;;;6.67;6.67;;;;;;;;5042904;28;45405;-85
2021/12/06 06:07:02;;;;;;;;;7.33;4.67;;;;;;;;5024815;28;48206;-85
2021/12/06 06:09:28;;;;;;;;;6.00;5.00;;;;;;;;5023931;28;45763;-84
2021/12/06 06:11:53;;;;;;;;;6.67;6.67;;;;;;;;5043528;28;44839;-84
2021/12/06 06:14:18;;;;;;;;;7.00;5.67;;;;;;;;5045477;28;45522;-84
2021/12/06 06:16:48;;;;;;;;;11.00;6.33;;;;;;;;5041881;28;45357;-85
2021/12/06 06:19:14;;;;;;;;;10.00;8.00;;;;;;;;5028637;28;45738;-85
2021/12/06 06:21:39;;;;;;;;;6.00;6.00;;;;;;;;5028384;28;45366;-84
2021/12/06 06:24:06;;;;;;;;;5.67;5.67;;;;;;;;5045847;28;45414;-84
2021/12/06 06:26:31;;;;;;;;;11.00;6.00;;;;;;;;5028000;28;47185;-84
2021/12/06 06:28:56;;;;;;;;;6.67;5.67;;;;;;;;5042744;28;45429;-84
2021/12/06 06:31:22;;;;;;;;;5.33;5.33;;;;;;;;5045739;28;45392;-84
2021/12/06 06:33:47;;;;;;;;;6.00;6.00;;;;;;;;5029736;28;44980;-85
2021/12/06 06:36:13;;;;;;;;;6.33;6.33;;;;;;;;5047927;28;45938;-85
2021/12/06 06:38:46;;;;;;;;;7.00;7.00;;;;;;;;5045482;28;45419;-84
2021/12/06 06:41:11;;;;;;;;;3.67;3.67;;;;;;;;5027701;28;45489;-85
2021/12/06 06:43:37;;;;;;;;;7.33;7.33;;;;;;;;5047568;28;44765;-84
2021/12/06 06:46:03;;;;;;;;;5.00;5.00;;;;;;;;5029426;28;47096;-84
2021/12/06 06:48:30;;;;;;;;;8.00;7.00;;;;;;;;5047242;28;45365;-83
2021/12/06 06:50:55;;;;;;;;;8.00;7.00;;;;;;;;5046010;28;44735;-84
2021/12/06 06:53:21;;;;;;;;;5.67;5.67;;;;;;;;5046940;28;45371;-83
2021/12/06 06:55:46;;;;;;;;;10.67;7.00;;;;;;;;5048003;28;48055;-84
2021/12/06 06:58:11;;;;;;;;;5.67;5.67;;;;;;;;5066077;28;44888;-84
2021/12/06 07:00:39;;;;;;;;;5.00;5.00;;;;;;;;5067311;28;45501;-84
2021/12/06 07:03:05;;;;;;;;;7.00;5.00;;;;;;;;5064798;28;45311;-84
2021/12/06 07:05:30;;;;;;;;;5.00;5.00;;;;;;;;5058655;28;47638;-83
2021/12/06 07:07:56;;;;;;;;;5.67;5.67;;;;;;;;5088540;28;45440;-83
2021/12/06 07:10:23;;;;;;;;;9.00;6.67;;;;;;;;5070935;28;45425;-83
2021/12/06 07:12:50;;;;;;;;;8.00;8.00;;;;;;;;5087277;28;45339;-83
2021/12/06 07:15:17;;;;;;;;;7.00;5.67;;;;;;;;5069342;28;47178;-83
2021/12/06 07:17:43;;;;;;;;;5.67;5.67;;;;;;;;5068862;28;45932;-84
2021/12/06 07:20:09;;;;;;;;;6.67;6.67;;;;;;;;5069059;28;45367;-84
2021/12/06 07:22:35;;;;;;;;;6.33;6.33;;;;;;;;5068525;28;45852;-85
2021/12/06 07:25:00;;;;;;;;;8.00;7.33;;;;;;;;5068333;28;47080;-85
2021/12/06 07:27:25;;;;;;;;;8.00;6.33;;;;;;;;5067721;28;45568;-85
2021/12/06 07:29:50;;;;;;;;;9.33;9.33;;;;;;;;5085164;28;45394;-84
2021/12/06 07:32:16;;;;;;;;;10.33;10.00;;;;;;;;5086741;28;45512;-84
2021/12/06 07:34:41;;;;;;;;;7.00;7.00;;;;;;;;5086156;28;45555;-84
2021/12/06 07:37:06;;;;;;;;;6.33;6.33;;;;;;;;5086223;28;44765;-85
2021/12/06 07:39:32;;;;;;;;;10.33;10.33;;;;;;;;5067998;28;45447;-84
2021/12/06 07:41:57;;;;;;;;;10.33;10.33;;;;;;;;5068479;28;45622;-83
2021/12/06 07:44:23;;;;;;;;;6.00;6.00;;;;;;;;5069638;28;46909;-84
2021/12/06 07:46:52;;;;;;;;;11.33;10.33;;;;;;;;5070315;28;45421;-83
2021/12/06 07:49:18;;;;;;;;;9.50;8.50;;;;;;;;5069082;28;45476;-83
2021/12/06 07:51:43;;;;;;;;;9.67;8.67;;;;;;;;5070496;28;45439;-83
2021/12/06 07:54:08;;;;;;;;;16.00;9.33;;;;;;;;5070089;28;47268;-83
2021/12/06 07:56:33;;;;;;;;;11.00;11.00;;;;;;;;5068267;28;46028;-84
2021/12/06 07:58:59;;;;;;;;;9.33;7.67;;;;;;;;5069247;28;45775;-84
2021/12/06 08:01:24;;;;;;;;;8.67;7.00;;;;;;;;5087317;28;45468;-84
2021/12/06 08:03:49;;;;;;;;;7.00;7.00;;;;;;;;5068182;28;47269;-83
2021/12/06 08:06:15;;;;;;;;;10.33;8.67;;;;;;;;5097002;28;45502;-85
2021/12/06 08:08:42;;;;;;;;;9.00;7.67;;;;;;;;5093203;28;45875;-84
2021/12/06 08:11:11;;;;;;;;;9.67;8.33;;;;;;;;5092334;28;45583;-86
2021/12/06 08:13:38;;;;;;;;;14.33;14.33;;;;;;;;5073590;28;47679;-84
2021/12/06 08:16:06;;;;;;;;;8.67;8.00;;;;;;;;5089109;28;45492;-85
2021/12/06 08:18:32;;;;;;;;;12.00;10.00;;;;;;;;5070912;28;45514;-85
2021/12/06 08:20:57;;;;;;;;;12.33;11.00;;;;;;;;5070410;28;44943;-84
2021/12/06 08:23:23;;;;;;;;;12.00;12.00;;;;;;;;5088389;28;45405;-84
2021/12/06 08:25:51;;;;;;;;;20.33;17.33;;;;;;;;5069066;28;45496;-83
2021/12/06 08:28:18;;;;;;;;;20.00;15.33;;;;;;;;5072398;28;45407;-85
2021/12/06 08:30:44;;;;;;;;;12.00;10.33;;;;;;;;5068532;28;45401;-84
2021/12/06 08:33:10;;;;;;;;;12.67;11.00;;;;;;;;5067260;28;48296;-89
2021/12/06 08:35:37;;;;;;;;;14.00;10.67;;;;;;;;5067745;28;45784;-85
2021/12/06 08:38:02;;;;;;;;;11.00;10.00;;;;;;;;5067989;28;45807;-84
2021/12/06 08:40:33;;;;;;;;;10.00;9.33;;;;;;;;5089065;28;45318;-84
2021/12/06 08:43:10;;;;;;;;;12.67;11.67;;;;;;;;5067455;28;45393;-85
2021/12/06 08:45:36;;;;;;;;;8.00;7.00;;;;;;;;5060879;28;44879;-84
2021/12/06 08:48:04;;;;;;;;;11.67;11.67;;;;;;;;5048791;28;45585;-84
2021/12/06 08:50:30;;;;;;;;;11.00;8.00;;;;;;;;5064649;28;45360;-85
2021/12/06 08:56:05;;;;;;;;;11.33;8.00;;;;;;;;5072398;28;44792;-85
2021/12/06 08:58:31;;;;;;;;;9.33;7.33;;;;;;;;5068266;28;45853;-84
2021/12/06 09:02:21;;;;;;;;;13.67;13.67;;;;;;;;5060368;28;45437;-85
2021/12/06 09:04:34;;;;;;;;;10.00;10.00;;;;;;;;5017066;28;45372;-84
2021/12/06 09:07:11;;;;;;;;;9.33;6.00;;;;;;;;4993203;28;45796;-85
2021/12/06 09:09:48;;;;;;;;;11.33;8.00;;;;;;;;5024705;28;45589;-85
2021/12/06 09:12:21;;;;;;;;;9.67;6.67;;;;;;;;5025911;28;45480;-84
2021/12/06 09:14:50;;;;;;;;;8.00;8.00;;;;;;;;4997850;28;46759;-84
2021/12/06 09:17:16;;;;;;;;;6.00;4.67;;;;;;;;5007406;28;45808;-84
2021/12/06 09:19:42;;;;;;;;;9.67;7.00;;;;;;;;5000108;28;45475;-83
2021/12/06 09:22:07;;;;;;;;;9.67;7.33;;;;;;;;5013342;28;45432;-82
2021/12/06 09:24:33;;;;;;;;;11.00;11.00;;;;;;;;5015954;28;46263;-83
2021/12/06 09:27:00;;;;;;;;;9.67;9.67;;;;;;;;5009958;28;45428;-84
2021/12/06 09:29:26;;;;;;;;;11.00;10.67;;;;;;;;5008867;28;45618;-84
2021/12/06 09:31:55;;;;;;;;;9.67;9.33;;;;;;;;5008999;28;45398;-85
2021/12/06 09:34:21;;;;;;;;;8.67;8.67;;;;;;;;5008548;28;47271;-85
2021/12/06 09:36:46;;;;;;;;;11.00;11.00;;;;;;;;5016399;28;45838;-85
2021/12/06 09:39:13;;;;;;;;;13.33;13.00;;;;;;;;5000288;28;44853;-84
2021/12/06 09:41:39;;;;;;;;;14.67;10.33;;;;;;;;5037851;28;45491;-85
2021/12/06 09:44:10;;;;;;;;;12.33;12.33;;;;;;;;5062897;28;46774;-84
2021/12/06 09:46:37;;;;;;;;;9.00;9.00;;;;;;;;5068651;28;45498;-84
2021/12/06 09:49:10;;;;;;;;;13.00;11.00;;;;;;;;5050128;28;44757;-84
2021/12/06 09:51:38;;;;;;;;;9.67;9.67;;;;;;;;5049374;28;45454;-84
2021/12/06 09:54:07;;;;;;;;;12.33;11.33;;;;;;;;5060635;28;45315;-84
2021/12/06 09:56:44;;;;;;;;;12.00;11.00;;;;;;;;5060097;28;45496;-84
2021/12/06 09:59:12;;;;;;;;;9.00;9.00;;;;;;;;5069207;28;44839;-84
2021/12/06 10:01:40;;;;;;;;;14.67;12.67;;;;;;;;5087001;28;45524;-84
2021/12/06 10:07:09;;;;;;;;;11.33;11.33;;;;;;;;5083208;28;45318;-84
2021/12/06 10:09:35;;;;;;;;;12.00;10.33;;;;;;;;5062000;28;45508;-84
2021/12/06 10:12:03;;;;;;;;;13.67;8.67;;;;;;;;5066940;28;45525;-85
2021/12/06 10:14:29;;;;;;;;;11.00;11.00;;;;;;;;5068252;28;47221;-84
2021/12/06 10:19:57;;;;;;;;;14.00;12.33;;;;;;;;5088364;28;45561;-84
2021/12/06 10:22:24;;;;;;;;;17.33;13.33;;;;;;;;5072356;28;45816;-84
2021/12/06 10:24:56;;;;;;;;;13.00;12.67;;;;;;;;5067902;28;47090;-84
2021/12/06 10:27:21;;;;;;;;;13.00;12.00;;;;;;;;5067196;28;46118;-84
2021/12/06 10:29:54;;;;;;;;;11.00;10.33;;;;;;;;5089533;28;44839;-84
2021/12/06 10:35:03;;;;;;;;;15.33;13.00;;;;;;;;5147288;22;46511;-84
2021/12/06 10:37:49;;;;;;;;;12.00;11.00;;;;;;;;5101811;27;45486;-84
2021/12/06 10:40:20;;;;;;;;;12.33;12.33;;;;;;;;5001004;28;45001;-83
2021/12/06 10:45:56;;;;;;;;;12.00;12.00;;;;;;;;4984249;28;45750;-83
2021/12/06 10:48:27;;;;;;;;;11.67;11.67;;;;;;;;4973533;28;45400;-83
2021/12/06 10:50:52;;;;;;;;;13.00;11.33;;;;;;;;4972661;28;45534;-84
2021/12/06 10:53:23;;;;;;;;;13.00;8.33;;;;;;;;4967784;28;45495;-84
2021/12/06 10:55:51;;;;;;;;;12.33;12.00;;;;;;;;4980029;28;45765;-84
2021/12/06 10:58:17;;;;;;;;;11.00;9.67;;;;;;;;4974317;28;45646;-84
2021/12/06 11:00:45;;;;;;;;;12.00;9.33;;;;;;;;4954571;28;45429;-85
2021/12/06 11:03:37;;;;;;;;;10.00;9.00;;;;;;;;4967110;28;45378;-85
2021/12/06 11:06:09;;;;;;;;;14.33;11.67;;;;;;;;4973081;28;47430;-85
2021/12/06 11:08:38;;;;;;;;;13.67;13.67;;;;;;;;4972056;28;45362;-85
2021/12/06 11:11:08;;;;;;;;;13.67;13.67;;;;;;;;4973788;28;45340;-86
2021/12/06 11:13:36;;;;;;;;;14.33;14.00;;;;;;;;4952466;28;45530;-84
2021/12/06 11:16:17;;;;;;;;;12.00;12.00;;;;;;;;4974913;28;47375;-86
2021/12/06 11:18:49;;;;;;;;;8.33;8.33;;;;;;;;5050279;28;45879;-84
2021/12/06 11:21:17;;;;;;;;;7.33;6.67;;;;;;;;5039908;28;45810;-84
2021/12/06 11:26:47;;;;;;;;;8.00;8.00;;;;;;;;5123305;27;44838;-85
2021/12/06 11:29:19;;;;;;;;;12.00;12.00;;;;;;;;5097980;27;45407;-85
2021/12/06 11:31:50;;;;;;;;;12.00;12.00;;;;;;;;5123771;27;45187;-84
2021/12/06 11:34:24;;;;;;;;;13.00;13.00;;;;;;;;5107226;27;45397;-85
2021/12/06 11:36:50;;;;;;;;;13.33;12.67;;;;;;;;5067373;27;46756;-85
2021/12/06 11:39:17;;;;;;;;;12.00;12.00;;;;;;;;5089463;27;45425;-83
2021/12/06 11:44:49;;;;;;;;;11.33;11.00;;;;;;;;5096206;27;44831;-85
2021/12/06 11:47:24;;;;;;;;;13.33;13.00;;;;;;;;5090341;27;46347;-86
2021/12/06 11:50:22;;;;;;;;;9.33;9.33;;;;;;;;5066554;28;45426;-84
2021/12/06 11:52:48;;;;;;;;;12.00;12.00;;;;;;;;5105502;27;45472;-87
2021/12/06 11:55:23;;;;;;;;;7.67;7.67;;;;;;;;5101855;27;45385;-92
2021/12/06 11:57:54;;;;;;;;;7.67;6.00;;;;;;;;5089988;27;45319;-86
2021/12/06 12:00:21;;;;;;;;;9.33;8.33;;;;;;;;5091847;27;45514;-88
2021/12/06 12:02:57;;;;;;;;;9.67;9.67;;;;;;;;5095850;27;45384;-89
2021/12/06 12:05:22;;;;;;;;;15.33;13.33;;;;;;;;5099669;27;45477;-86
2021/12/06 12:07:52;;;;;;;;;15.67;15.67;;;;;;;;5097067;27;47686;-87
2021/12/06 12:10:50;;;;;;;;;32.67;25.00;;;;;;;;5112402;27;44791;-85
2021/12/06 12:13:32;;;;;;;;;12.00;12.00;;;;;;;;5012335;28;44803;-86
2021/12/06 12:15:59;;;;;;;;;11.33;11.33;;;;;;;;4993364;28;45376;-86
2021/12/06 12:18:26;;;;;;;;;9.67;9.67;;;;;;;;5012792;28;45359;-88
2021/12/06 12:20:52;;;;;;;;;9.00;9.00;;;;;;;;5012672;28;45349;-87
2021/12/06 12:23:19;;;;;;;;;12.00;12.00;;;;;;;;5011002;28;45379;-90
2021/12/06 12:25:51;;;;;;;;;12.00;12.00;;;;;;;;5011092;28;45345;-86
2021/12/06 12:30:46;;;;;;;;;15.33;8.67;;;;;;;;4986886;28;45440;-83
2021/12/06 12:33:12;;;;;;;;;11.33;9.00;;;;;;;;4986041;28;45568;-85
2021/12/06 12:35:41;;;;;;;;;13.00;13.00;;;;;;;;4979175;28;45411;-85
2021/12/06 12:38:07;;;;;;;;;10.33;10.33;;;;;;;;4992139;28;47190;-86
2021/12/06 12:40:43;;;;;;;;;12.00;9.33;;;;;;;;4969447;28;45349;-87
2021/12/06 12:43:13;;;;;;;;;15.67;15.67;;;;;;;;4976264;28;44940;-87
2021/12/06 12:45:41;;;;;;;;;7.00;6.00;;;;;;;;4993405;28;44905;-88
2021/12/06 12:48:08;;;;;;;;;10.33;9.67;;;;;;;;5005675;28;45526;-86
2021/12/06 12:50:33;;;;;;;;;14.00;9.00;;;;;;;;5082820;28;45399;-87
2021/12/06 12:53:06;;;;;;;;;8.00;7.33;;;;;;;;5059325;28;45295;-85
2021/12/06 12:55:31;;;;;;;;;6.00;6.00;;;;;;;;5082701;28;45363;-85
2021/12/06 12:58:08;;;;;;;;;4.00;4.00;;;;;;;;5062907;28;46989;-85
2021/12/06 13:00:42;;;;;;;;;10.67;10.67;;;;;;;;5055912;28;45443;-85
2021/12/06 13:03:27;;;;;;;;;10.67;10.67;;;;;;;;5050856;28;45504;-85
2021/12/06 13:06:11;;;;;;;;;6.33;6.33;;;;;;;;5072813;28;45375;-85
2021/12/06 13:08:36;;;;;;;;;7.33;7.33;;;;;;;;5032982;28;46822;-85
2021/12/06 13:11:04;;;;;;;;;7.33;6.00;;;;;;;;5057002;28;45489;-84
2021/12/06 13:13:44;;;;;;;;;6.00;6.00;;;;;;;;5049849;28;45409;-84
2021/12/06 13:16:28;;;;;;;;;6.00;6.00;;;;;;;;5033703;28;45565;-84
2021/12/06 13:19:05;;;;;;;;;7.67;7.67;;;;;;;;5039843;28;48647;-83
2021/12/06 13:21:32;;;;;;;;;3.33;3.00;;;;;;;;5045696;28;45835;-83
2021/12/06 13:24:13;;;;;;;;;8.00;6.33;;;;;;;;5041213;28;45382;-84
2021/12/06 13:26:40;;;;;;;;;7.33;7.33;;;;;;;;5026609;28;45575;-84
2021/12/06 13:29:07;;;;;;;;;6.00;2.67;;;;;;;;5040919;28;46953;-84
2021/12/06 13:31:32;;;;;;;;;3.67;3.67;;;;;;;;5007780;28;45717;-84
2021/12/06 13:33:58;;;;;;;;;6.33;4.00;;;;;;;;5034813;28;45461;-83
2021/12/06 13:36:45;;;;;;;;;8.00;4.00;;;;;;;;5049888;28;45369;-85
2021/12/06 13:42:35;;;;;;;;;2.33;2.00;;;;;;;;5049538;28;45453;-86
2021/12/06 13:45:04;;;;;;;;;4.00;4.00;;;;;;;;5047342;28;45398;-86
2021/12/06 13:47:30;;;;;;;;;1.00;1.00;;;;;;;;5045225;28;45864;-86
2021/12/06 13:49:55;;;;;;;;;4.67;4.67;;;;;;;;5047320;28;45238;-86
2021/12/06 13:52:40;;;;;;;;;4.00;3.00;;;;;;;;5050465;28;45002;-85
2021/12/06 13:55:27;;;;;;;;;3.00;1.67;;;;;;;;5055668;28;44751;-86
2021/12/06 13:57:56;;;;;;;;;6.00;3.00;;;;;;;;5054865;28;44832;-85
2021/12/06 14:00:29;;;;;;;;;2.00;2.00;;;;;;;;5054187;28;45253;-85
2021/12/06 14:02:57;;;;;;;;;2.67;2.33;;;;;;;;5051669;28;45303;-85
2021/12/06 14:05:23;;;;;;;;;1.00;1.00;;;;;;;;5049252;28;45406;-86
2021/12/06 14:07:48;;;;;;;;;2.00;2.00;;;;;;;;5047284;28;45833;-84
2021/12/06 14:10:14;;;;;;;;;3.00;3.00;;;;;;;;5065483;28;45078;-84
2021/12/06 14:12:44;;;;;;;;;6.67;3.00;;;;;;;;5074116;28;45529;-85
2021/12/06 14:15:35;;;;;;;;;3.33;3.00;;;;;;;;5072843;28;45471;-86
2021/12/06 14:18:25;;;;;;;;;2.00;2.00;;;;;;;;5080509;28;44796;-84
2021/12/06 14:20:52;;;;;;;;;3.33;3.33;;;;;;;;5081512;27;47849;-85
2021/12/06 14:23:22;;;;;;;;;2.67;2.67;;;;;;;;5089862;28;45485;-86
2021/12/06 14:25:52;;;;;;;;;4.00;4.00;;;;;;;;5069914;27;44797;-84
2021/12/06 14:28:18;;;;;;;;;4.67;4.67;;;;;;;;5091651;28;45622;-85
2021/12/06 14:30:44;;;;;;;;;4.00;4.00;;;;;;;;5074126;28;45550;-83
2021/12/06 14:33:10;;;;;;;;;3.33;3.33;;;;;;;;5070344;28;45112;-85
2021/12/06 14:35:42;;;;;;;;;2.33;2.33;;;;;;;;5086831;27;45775;-85
2021/12/06 14:38:07;;;;;;;;;6.00;4.00;;;;;;;;5079931;28;45999;-85
2021/12/06 14:40:36;;;;;;;;;3.00;3.00;;;;;;;;5081597;27;46777;-86
2021/12/06 14:46:10;;;;;;;;;3.00;3.00;;;;;;;;5084832;27;45742;-84
2021/12/06 14:48:36;;;;;;;;;7.00;4.00;;;;;;;;5078743;27;45872;-86
2021/12/06 14:51:13;;;;;;;;;6.33;3.67;;;;;;;;5075313;27;46931;-84
2021/12/06 14:53:58;;;;;;;;;3.67;3.33;;;;;;;;5089079;27;45821;-85
2021/12/06 14:56:47;;;;;;;;;3.00;3.00;;;;;;;;5067742;28;44825;-85
2021/12/06 14:59:20;;;;;;;;;9.67;6.00;;;;;;;;5095244;27;45345;-85
2021/12/06 15:01:46;;;;;;;;;4.67;4.67;;;;;;;;5088094;27;47295;-85
2021/12/06 15:04:27;;;;;;;;;3.00;3.00;;;;;;;;5082884;27;45444;-85
2021/12/06 15:06:55;;;;;;;;;6.00;3.33;;;;;;;;5113309;27;45510;-85
2021/12/06 15:09:20;;;;;;;;;2.67;2.00;;;;;;;;5081169;27;45849;-85
2021/12/06 15:14:53;;;;;;;;;2.67;2.67;;;;;;;;5103512;27;44818;-85
2021/12/06 15:17:21;;;;;;;;;6.67;3.00;;;;;;;;5107782;27;46431;-86
2021/12/06 15:19:46;;;;;;;;;3.00;3.00;;;;;;;;5079416;27;45441;-85
2021/12/06 15:22:12;;;;;;;;;3.67;3.67;;;;;;;;5087314;27;45489;-85
2021/12/06 15:24:38;;;;;;;;;3.00;3.00;;;;;;;;5081519;27;45549;-85
2021/12/06 15:27:07;;;;;;;;;3.33;3.00;;;;;;;;5084494;27;44945;-86
2021/12/06 15:29:35;;;;;;;;;3.67;2.00;;;;;;;;5084566;27;45822;-86
2021/12/06 15:32:05;;;;;;;;;4.67;4.00;;;;;;;;5084147;27;47729;-85
2021/12/06 15:34:31;;;;;;;;;2.00;2.00;;;;;;;;5087988;28;45475;-86
2021/12/06 15:36:57;;;;;;;;;4.67;4.00;;;;;;;;5073294;28;45386;-86
2021/12/06 15:39:23;;;;;;;;;2.67;2.33;;;;;;;;5079210;28;44978;-85
2021/12/06 15:41:50;;;;;;;;;2.00;2.00;;;;;;;;5077409;28;46442;-85
2021/12/06 15:44:19;;;;;;;;;5.33;3.67;;;;;;;;5085598;28;45548;-85
2021/12/06 15:46:44;;;;;;;;;3.33;3.33;;;;;;;;5091319;28;45484;-86